sensor_id;sensor_type;location;lat;lon;timestamp;P1;durP1;ratioP1;P2;durP2;ratioP2
8482;SDS011;4278;42.668;23.312;2022-10-16T00:00:08;11.73;;;7.87;;
8482;SDS011;4278;42.668;23.312;2022-10-16T00:02:35;11.23;;;7.43;;
8482;SDS011;4278;42.668;23.312;2022-10-16T00:05:01;11.23;;;7.40;;
8482;SDS011;4278;42.668;23.312;2022-10-16T00:07:28;12.53;;;8.17;;
8482;SDS011;4278;42.668;23.312;2022-10-16T00:09:56;10.63;;;7.30;;
8482;SDS011;4278;42.668;23.312;2022-10-16T00:12:22;10.27;;;7.30;;
8482;SDS011;4278;42.668;23.312;2022-10-16T00:14:49;14.57;;;7.90;;
8482;SDS011;4278;42.668;23.312;2022-10-16T00:17:15;15.20;;;7.97;;
8482;SDS011;4278;42.668;23.312;2022-10-16T00:19:42;11.60;;;8.27;;
8482;SDS011;4278;42.668;23.312;2022-10-16T00:22:08;12.70;;;7.47;;
8482;SDS011;4278;42.668;23.312;2022-10-16T00:24:35;13.50;;;8.20;;
8482;SDS011;4278;42.668;23.312;2022-10-16T00:27:03;12.93;;;7.17;;
8482;SDS011;4278;42.668;23.312;2022-10-16T00:29:30;13.23;;;8.50;;
8482;SDS011;4278;42.668;23.312;2022-10-16T00:31:56;12.20;;;7.30;;
8482;SDS011;4278;42.668;23.312;2022-10-16T00:34:23;11.70;;;8.10;;
8482;SDS011;4278;42.668;23.312;2022-10-16T00:36:49;14.90;;;8.57;;
8482;SDS011;4278;42.668;23.312;2022-10-16T00:39:16;13.20;;;7.40;;
8482;SDS011;4278;42.668;23.312;2022-10-16T00:41:42;11.33;;;8.03;;
8482;SDS011;4278;42.668;23.312;2022-10-16T00:46:56;14.60;;;8.10;;
8482;SDS011;4278;42.668;23.312;2022-10-16T00:49:22;13.17;;;8.30;;
8482;SDS011;4278;42.668;23.312;2022-10-16T00:51:49;13.27;;;7.90;;
8482;SDS011;4278;42.668;23.312;2022-10-16T00:54:16;12.57;;;8.10;;
8482;SDS011;4278;42.668;23.312;2022-10-16T00:56:44;13.43;;;9.17;;
8482;SDS011;4278;42.668;23.312;2022-10-16T00:59:14;13.17;;;7.77;;
8482;SDS011;4278;42.668;23.312;2022-10-16T01:01:41;15.60;;;8.73;;
8482;SDS011;4278;42.668;23.312;2022-10-16T01:04:09;14.77;;;9.30;;
8482;SDS011;4278;42.668;23.312;2022-10-16T01:06:36;15.47;;;8.30;;
8482;SDS011;4278;42.668;23.312;2022-10-16T01:09:11;14.73;;;8.73;;
8482;SDS011;4278;42.668;23.312;2022-10-16T01:11:41;14.33;;;8.47;;
8482;SDS011;4278;42.668;23.312;2022-10-16T01:14:11;13.20;;;8.10;;
8482;SDS011;4278;42.668;23.312;2022-10-16T01:16:42;12.77;;;8.10;;
8482;SDS011;4278;42.668;23.312;2022-10-16T01:19:14;18.80;;;12.07;;
8482;SDS011;4278;42.668;23.312;2022-10-16T01:21:43;19.23;;;12.17;;
8482;SDS011;4278;42.668;23.312;2022-10-16T01:24:12;19.27;;;12.10;;
8482;SDS011;4278;42.668;23.312;2022-10-16T01:26:44;22.07;;;13.70;;
8482;SDS011;4278;42.668;23.312;2022-10-16T01:29:16;27.93;;;18.37;;
8482;SDS011;4278;42.668;23.312;2022-10-16T01:31:46;29.77;;;16.73;;
8482;SDS011;4278;42.668;23.312;2022-10-16T01:34:14;30.27;;;19.07;;
8482;SDS011;4278;42.668;23.312;2022-10-16T01:36:43;40.37;;;24.00;;
8482;SDS011;4278;42.668;23.312;2022-10-16T01:39:11;34.00;;;21.43;;
8482;SDS011;4278;42.668;23.312;2022-10-16T01:41:40;31.53;;;19.83;;
8482;SDS011;4278;42.668;23.312;2022-10-16T01:44:08;29.30;;;17.93;;
8482;SDS011;4278;42.668;23.312;2022-10-16T01:46:39;29.07;;;17.80;;
8482;SDS011;4278;42.668;23.312;2022-10-16T01:49:06;29.60;;;18.00;;
8482;SDS011;4278;42.668;23.312;2022-10-16T01:51:34;31.83;;;17.43;;
8482;SDS011;4278;42.668;23.312;2022-10-16T01:54:01;28.47;;;17.77;;
8482;SDS011;4278;42.668;23.312;2022-10-16T01:56:28;23.77;;;16.83;;
8482;SDS011;4278;42.668;23.312;2022-10-16T01:58:57;26.73;;;16.50;;
8482;SDS011;4278;42.668;23.312;2022-10-16T02:01:24;22.30;;;14.00;;
8482;SDS011;4278;42.668;23.312;2022-10-16T02:03:54;19.23;;;12.57;;
8482;SDS011;4278;42.668;23.312;2022-10-16T02:06:22;25.47;;;14.87;;
8482;SDS011;4278;42.668;23.312;2022-10-16T02:08:50;18.00;;;12.07;;
8482;SDS011;4278;42.668;23.312;2022-10-16T02:11:16;19.57;;;12.77;;
8482;SDS011;4278;42.668;23.312;2022-10-16T02:13:43;19.97;;;10.53;;
8482;SDS011;4278;42.668;23.312;2022-10-16T02:16:11;18.63;;;12.10;;
8482;SDS011;4278;42.668;23.312;2022-10-16T02:18:39;20.63;;;11.70;;
8482;SDS011;4278;42.668;23.312;2022-10-16T02:21:17;17.60;;;11.27;;
8482;SDS011;4278;42.668;23.312;2022-10-16T02:23:47;15.97;;;10.70;;
8482;SDS011;4278;42.668;23.312;2022-10-16T02:26:16;18.63;;;11.50;;
8482;SDS011;4278;42.668;23.312;2022-10-16T02:28:45;18.63;;;10.53;;
8482;SDS011;4278;42.668;23.312;2022-10-16T02:31:13;16.53;;;10.50;;
8482;SDS011;4278;42.668;23.312;2022-10-16T02:33:42;17.63;;;9.97;;
8482;SDS011;4278;42.668;23.312;2022-10-16T02:36:10;20.27;;;11.30;;
8482;SDS011;4278;42.668;23.312;2022-10-16T02:38:37;16.97;;;10.10;;
8482;SDS011;4278;42.668;23.312;2022-10-16T02:41:06;15.83;;;10.17;;
8482;SDS011;4278;42.668;23.312;2022-10-16T02:43:33;15.00;;;9.17;;
8482;SDS011;4278;42.668;23.312;2022-10-16T02:45:59;18.43;;;10.87;;
8482;SDS011;4278;42.668;23.312;2022-10-16T02:48:26;15.03;;;9.83;;
8482;SDS011;4278;42.668;23.312;2022-10-16T02:50:52;16.17;;;9.77;;
8482;SDS011;4278;42.668;23.312;2022-10-16T02:53:20;16.43;;;9.93;;
8482;SDS011;4278;42.668;23.312;2022-10-16T02:55:47;14.70;;;8.53;;
8482;SDS011;4278;42.668;23.312;2022-10-16T02:58:13;12.87;;;8.87;;
8482;SDS011;4278;42.668;23.312;2022-10-16T03:00:40;14.57;;;8.30;;
8482;SDS011;4278;42.668;23.312;2022-10-16T03:03:07;14.73;;;9.03;;
8482;SDS011;4278;42.668;23.312;2022-10-16T03:05:33;17.40;;;9.50;;
8482;SDS011;4278;42.668;23.312;2022-10-16T03:08:00;15.10;;;9.77;;
8482;SDS011;4278;42.668;23.312;2022-10-16T03:10:28;16.97;;;9.30;;
8482;SDS011;4278;42.668;23.312;2022-10-16T03:12:54;14.07;;;8.87;;
8482;SDS011;4278;42.668;23.312;2022-10-16T03:15:21;13.63;;;8.57;;
8482;SDS011;4278;42.668;23.312;2022-10-16T03:17:47;11.67;;;8.37;;
8482;SDS011;4278;42.668;23.312;2022-10-16T03:20:14;13.23;;;8.13;;
8482;SDS011;4278;42.668;23.312;2022-10-16T03:22:40;15.77;;;8.57;;
8482;SDS011;4278;42.668;23.312;2022-10-16T03:25:07;16.33;;;7.87;;
8482;SDS011;4278;42.668;23.312;2022-10-16T03:27:35;16.07;;;8.00;;
8482;SDS011;4278;42.668;23.312;2022-10-16T03:30:02;10.50;;;7.77;;
8482;SDS011;4278;42.668;23.312;2022-10-16T03:32:28;17.37;;;8.27;;
8482;SDS011;4278;42.668;23.312;2022-10-16T03:34:55;14.23;;;7.60;;
8482;SDS011;4278;42.668;23.312;2022-10-16T03:37:22;9.43;;;7.30;;
8482;SDS011;4278;42.668;23.312;2022-10-16T03:39:48;13.73;;;7.60;;
8482;SDS011;4278;42.668;23.312;2022-10-16T03:42:15;21.73;;;13.77;;
8482;SDS011;4278;42.668;23.312;2022-10-16T03:44:43;31.80;;;20.27;;
8482;SDS011;4278;42.668;23.312;2022-10-16T03:47:09;15.03;;;9.70;;
8482;SDS011;4278;42.668;23.312;2022-10-16T03:49:36;15.73;;;10.77;;
8482;SDS011;4278;42.668;23.312;2022-10-16T03:52:02;12.33;;;7.80;;
8482;SDS011;4278;42.668;23.312;2022-10-16T03:54:29;13.17;;;7.20;;
8482;SDS011;4278;42.668;23.312;2022-10-16T03:56:55;13.73;;;7.63;;
8482;SDS011;4278;42.668;23.312;2022-10-16T03:59:22;15.43;;;7.33;;
8482;SDS011;4278;42.668;23.312;2022-10-16T04:01:50;10.63;;;6.83;;
8482;SDS011;4278;42.668;23.312;2022-10-16T04:04:16;12.37;;;7.10;;
8482;SDS011;4278;42.668;23.312;2022-10-16T04:06:43;10.57;;;6.60;;
8482;SDS011;4278;42.668;23.312;2022-10-16T04:09:09;10.70;;;6.87;;
8482;SDS011;4278;42.668;23.312;2022-10-16T04:11:36;15.27;;;7.80;;
8482;SDS011;4278;42.668;23.312;2022-10-16T04:14:02;12.87;;;7.63;;
8482;SDS011;4278;42.668;23.312;2022-10-16T04:16:29;12.67;;;7.20;;
8482;SDS011;4278;42.668;23.312;2022-10-16T04:18:57;11.83;;;7.20;;
8482;SDS011;4278;42.668;23.312;2022-10-16T04:21:23;9.77;;;7.17;;
8482;SDS011;4278;42.668;23.312;2022-10-16T04:23:50;9.73;;;7.10;;
8482;SDS011;4278;42.668;23.312;2022-10-16T04:26:16;12.70;;;7.77;;
8482;SDS011;4278;42.668;23.312;2022-10-16T04:28:43;15.60;;;7.97;;
8482;SDS011;4278;42.668;23.312;2022-10-16T04:31:09;15.30;;;7.77;;
8482;SDS011;4278;42.668;23.312;2022-10-16T04:33:36;13.93;;;8.90;;
8482;SDS011;4278;42.668;23.312;2022-10-16T04:36:04;14.27;;;9.57;;
8482;SDS011;4278;42.668;23.312;2022-10-16T04:38:30;15.37;;;8.90;;
8482;SDS011;4278;42.668;23.312;2022-10-16T04:40:57;15.80;;;8.87;;
8482;SDS011;4278;42.668;23.312;2022-10-16T04:43:24;15.00;;;8.60;;
8482;SDS011;4278;42.668;23.312;2022-10-16T04:45:51;11.50;;;7.57;;
8482;SDS011;4278;42.668;23.312;2022-10-16T04:48:19;12.33;;;7.80;;
8482;SDS011;4278;42.668;23.312;2022-10-16T04:50:46;12.43;;;8.23;;
8482;SDS011;4278;42.668;23.312;2022-10-16T04:53:14;12.93;;;8.07;;
8482;SDS011;4278;42.668;23.312;2022-10-16T04:55:40;13.80;;;7.73;;
8482;SDS011;4278;42.668;23.312;2022-10-16T04:58:07;15.57;;;8.50;;
8482;SDS011;4278;42.668;23.312;2022-10-16T05:00:34;15.57;;;8.73;;
8482;SDS011;4278;42.668;23.312;2022-10-16T05:03:00;13.67;;;8.40;;
8482;SDS011;4278;42.668;23.312;2022-10-16T05:05:27;12.30;;;7.93;;
8482;SDS011;4278;42.668;23.312;2022-10-16T05:07:53;12.60;;;7.90;;
8482;SDS011;4278;42.668;23.312;2022-10-16T05:10:21;11.77;;;7.13;;
8482;SDS011;4278;42.668;23.312;2022-10-16T05:12:48;11.90;;;7.30;;
8482;SDS011;4278;42.668;23.312;2022-10-16T05:15:15;10.90;;;7.17;;
8482;SDS011;4278;42.668;23.312;2022-10-16T05:17:41;11.03;;;6.93;;
8482;SDS011;4278;42.668;23.312;2022-10-16T05:20:08;12.33;;;7.10;;
8482;SDS011;4278;42.668;23.312;2022-10-16T05:22:34;11.17;;;7.57;;
8482;SDS011;4278;42.668;23.312;2022-10-16T05:25:01;9.67;;;7.00;;
8482;SDS011;4278;42.668;23.312;2022-10-16T05:27:29;14.33;;;7.67;;
8482;SDS011;4278;42.668;23.312;2022-10-16T05:29:55;10.60;;;7.20;;
8482;SDS011;4278;42.668;23.312;2022-10-16T05:32:21;13.87;;;7.70;;
8482;SDS011;4278;42.668;23.312;2022-10-16T05:34:48;13.77;;;8.00;;
8482;SDS011;4278;42.668;23.312;2022-10-16T05:37:14;11.07;;;7.83;;
8482;SDS011;4278;42.668;23.312;2022-10-16T05:39:41;14.60;;;9.00;;
8482;SDS011;4278;42.668;23.312;2022-10-16T05:42:07;12.20;;;7.73;;
8482;SDS011;4278;42.668;23.312;2022-10-16T05:44:35;11.67;;;7.77;;
8482;SDS011;4278;42.668;23.312;2022-10-16T05:47:02;15.23;;;8.73;;
8482;SDS011;4278;42.668;23.312;2022-10-16T05:49:28;14.00;;;7.97;;
8482;SDS011;4278;42.668;23.312;2022-10-16T05:51:55;12.67;;;7.50;;
8482;SDS011;4278;42.668;23.312;2022-10-16T05:54:21;13.03;;;8.03;;
8482;SDS011;4278;42.668;23.312;2022-10-16T05:56:48;10.43;;;7.73;;
8482;SDS011;4278;42.668;23.312;2022-10-16T05:59:14;11.73;;;7.13;;
8482;SDS011;4278;42.668;23.312;2022-10-16T06:01:42;10.63;;;7.30;;
8482;SDS011;4278;42.668;23.312;2022-10-16T06:04:09;11.87;;;6.97;;
8482;SDS011;4278;42.668;23.312;2022-10-16T06:06:35;8.63;;;6.03;;
8482;SDS011;4278;42.668;23.312;2022-10-16T06:09:02;9.35;;;6.53;;
8482;SDS011;4278;42.668;23.312;2022-10-16T06:11:30;13.23;;;8.13;;
8482;SDS011;4278;42.668;23.312;2022-10-16T06:13:57;10.68;;;6.85;;
8482;SDS011;4278;42.668;23.312;2022-10-16T06:16:25;11.45;;;7.97;;
8482;SDS011;4278;42.668;23.312;2022-10-16T06:18:54;10.52;;;6.97;;
8482;SDS011;4278;42.668;23.312;2022-10-16T06:21:22;12.55;;;7.60;;
8482;SDS011;4278;42.668;23.312;2022-10-16T06:23:49;8.77;;;6.97;;
8482;SDS011;4278;42.668;23.312;2022-10-16T06:26:17;10.02;;;7.28;;
8482;SDS011;4278;42.668;23.312;2022-10-16T06:28:44;12.15;;;7.05;;
8482;SDS011;4278;42.668;23.312;2022-10-16T06:31:11;8.60;;;7.13;;
8482;SDS011;4278;42.668;23.312;2022-10-16T06:33:38;8.17;;;6.23;;
8482;SDS011;4278;42.668;23.312;2022-10-16T06:36:07;14.43;;;9.60;;
8482;SDS011;4278;42.668;23.312;2022-10-16T06:38:34;10.20;;;6.83;;
8482;SDS011;4278;42.668;23.312;2022-10-16T06:41:00;8.87;;;6.43;;
8482;SDS011;4278;42.668;23.312;2022-10-16T06:43:28;10.60;;;6.83;;
8482;SDS011;4278;42.668;23.312;2022-10-16T06:45:57;14.43;;;8.27;;
8482;SDS011;4278;42.668;23.312;2022-10-16T06:48:24;8.20;;;6.40;;
8482;SDS011;4278;42.668;23.312;2022-10-16T06:51:00;8.37;;;6.33;;
8482;SDS011;4278;42.668;23.312;2022-10-16T06:53:29;10.07;;;6.60;;
8482;SDS011;4278;42.668;23.312;2022-10-16T06:55:56;11.33;;;6.77;;
8482;SDS011;4278;42.668;23.312;2022-10-16T06:58:22;10.23;;;6.63;;
8482;SDS011;4278;42.668;23.312;2022-10-16T07:00:54;13.33;;;7.57;;
8482;SDS011;4278;42.668;23.312;2022-10-16T07:03:21;9.20;;;7.10;;
8482;SDS011;4278;42.668;23.312;2022-10-16T07:05:48;11.10;;;7.77;;
8482;SDS011;4278;42.668;23.312;2022-10-16T07:08:14;12.80;;;8.80;;
8482;SDS011;4278;42.668;23.312;2022-10-16T07:10:42;18.70;;;9.30;;
8482;SDS011;4278;42.668;23.312;2022-10-16T07:13:09;15.40;;;8.97;;
8482;SDS011;4278;42.668;23.312;2022-10-16T07:15:38;15.57;;;10.27;;
8482;SDS011;4278;42.668;23.312;2022-10-16T07:18:04;13.07;;;9.07;;
8482;SDS011;4278;42.668;23.312;2022-10-16T07:20:31;14.70;;;9.60;;
8482;SDS011;4278;42.668;23.312;2022-10-16T07:22:58;18.90;;;10.40;;
8482;SDS011;4278;42.668;23.312;2022-10-16T07:25:24;12.70;;;9.57;;
8482;SDS011;4278;42.668;23.312;2022-10-16T07:27:52;15.13;;;9.97;;
8482;SDS011;4278;42.668;23.312;2022-10-16T07:30:21;15.97;;;9.17;;
8482;SDS011;4278;42.668;23.312;2022-10-16T07:32:48;16.43;;;9.87;;
8482;SDS011;4278;42.668;23.312;2022-10-16T07:35:14;15.00;;;9.07;;
8482;SDS011;4278;42.668;23.312;2022-10-16T07:37:43;13.93;;;9.33;;
8482;SDS011;4278;42.668;23.312;2022-10-16T07:40:10;16.47;;;10.37;;
8482;SDS011;4278;42.668;23.312;2022-10-16T07:42:37;15.90;;;9.73;;
8482;SDS011;4278;42.668;23.312;2022-10-16T07:45:06;17.90;;;10.50;;
8482;SDS011;4278;42.668;23.312;2022-10-16T07:47:32;12.00;;;8.70;;
8482;SDS011;4278;42.668;23.312;2022-10-16T07:49:59;13.57;;;8.33;;
8482;SDS011;4278;42.668;23.312;2022-10-16T07:52:25;13.40;;;8.17;;
8482;SDS011;4278;42.668;23.312;2022-10-16T07:54:52;12.37;;;7.63;;
8482;SDS011;4278;42.668;23.312;2022-10-16T07:57:18;11.70;;;7.33;;
8482;SDS011;4278;42.668;23.312;2022-10-16T07:59:45;12.47;;;8.00;;
8482;SDS011;4278;42.668;23.312;2022-10-16T08:02:13;13.33;;;7.60;;
8482;SDS011;4278;42.668;23.312;2022-10-16T08:04:39;12.50;;;7.70;;
8482;SDS011;4278;42.668;23.312;2022-10-16T08:07:06;12.23;;;8.17;;
8482;SDS011;4278;42.668;23.312;2022-10-16T08:09:33;10.67;;;7.50;;
8482;SDS011;4278;42.668;23.312;2022-10-16T08:11:59;11.00;;;8.07;;
8482;SDS011;4278;42.668;23.312;2022-10-16T08:14:26;15.10;;;8.37;;
8482;SDS011;4278;42.668;23.312;2022-10-16T08:16:52;11.80;;;6.20;;
8482;SDS011;4278;42.668;23.312;2022-10-16T08:19:20;9.07;;;6.20;;
8482;SDS011;4278;42.668;23.312;2022-10-16T08:21:47;9.97;;;6.60;;
8482;SDS011;4278;42.668;23.312;2022-10-16T08:24:14;9.77;;;6.10;;
8482;SDS011;4278;42.668;23.312;2022-10-16T08:26:40;9.23;;;6.20;;
8482;SDS011;4278;42.668;23.312;2022-10-16T08:29:07;9.70;;;6.10;;
8482;SDS011;4278;42.668;23.312;2022-10-16T08:31:33;11.17;;;6.83;;
8482;SDS011;4278;42.668;23.312;2022-10-16T08:33:59;8.43;;;5.30;;
8482;SDS011;4278;42.668;23.312;2022-10-16T08:36:27;11.63;;;6.07;;
8482;SDS011;4278;42.668;23.312;2022-10-16T08:38:54;8.93;;;6.53;;
8482;SDS011;4278;42.668;23.312;2022-10-16T08:44:09;8.00;;;5.07;;
8482;SDS011;4278;42.668;23.312;2022-10-16T08:46:42;9.87;;;5.63;;
8482;SDS011;4278;42.668;23.312;2022-10-16T08:49:12;8.47;;;5.80;;
8482;SDS011;4278;42.668;23.312;2022-10-16T08:51:40;8.50;;;5.10;;
8482;SDS011;4278;42.668;23.312;2022-10-16T08:54:11;6.97;;;4.90;;
8482;SDS011;4278;42.668;23.312;2022-10-16T08:56:42;6.13;;;4.80;;
8482;SDS011;4278;42.668;23.312;2022-10-16T08:59:09;5.67;;;4.97;;
8482;SDS011;4278;42.668;23.312;2022-10-16T09:01:37;6.37;;;3.73;;
8482;SDS011;4278;42.668;23.312;2022-10-16T09:04:14;7.07;;;4.30;;
8482;SDS011;4278;42.668;23.312;2022-10-16T09:06:48;8.83;;;4.53;;
8482;SDS011;4278;42.668;23.312;2022-10-16T09:09:32;6.23;;;4.07;;
8482;SDS011;4278;42.668;23.312;2022-10-16T09:12:04;8.20;;;4.30;;
8482;SDS011;4278;42.668;23.312;2022-10-16T09:17:18;7.90;;;4.43;;
8482;SDS011;4278;42.668;23.312;2022-10-16T09:19:48;6.53;;;4.17;;
8482;SDS011;4278;42.668;23.312;2022-10-16T09:22:18;13.97;;;3.93;;
8482;SDS011;4278;42.668;23.312;2022-10-16T09:24:46;6.03;;;3.60;;
8482;SDS011;4278;42.668;23.312;2022-10-16T09:27:13;5.43;;;3.40;;
8482;SDS011;4278;42.668;23.312;2022-10-16T09:29:40;7.93;;;3.60;;
8482;SDS011;4278;42.668;23.312;2022-10-16T09:32:09;7.47;;;3.50;;
8482;SDS011;4278;42.668;23.312;2022-10-16T09:34:36;4.20;;;3.30;;
8482;SDS011;4278;42.668;23.312;2022-10-16T09:37:08;6.70;;;3.70;;
8482;SDS011;4278;42.668;23.312;2022-10-16T09:39:45;5.87;;;3.70;;
8482;SDS011;4278;42.668;23.312;2022-10-16T09:42:13;4.63;;;3.93;;
8482;SDS011;4278;42.668;23.312;2022-10-16T09:44:40;4.87;;;3.27;;
8482;SDS011;4278;42.668;23.312;2022-10-16T09:47:12;5.77;;;3.43;;
8482;SDS011;4278;42.668;23.312;2022-10-16T09:49:38;7.13;;;3.33;;
8482;SDS011;4278;42.668;23.312;2022-10-16T09:52:06;4.50;;;3.13;;
8482;SDS011;4278;42.668;23.312;2022-10-16T09:54:37;4.37;;;3.13;;
8482;SDS011;4278;42.668;23.312;2022-10-16T09:57:05;4.90;;;3.20;;
8482;SDS011;4278;42.668;23.312;2022-10-16T09:59:32;5.50;;;3.63;;
8482;SDS011;4278;42.668;23.312;2022-10-16T10:02:01;5.90;;;3.00;;
8482;SDS011;4278;42.668;23.312;2022-10-16T10:04:36;3.77;;;3.00;;
8482;SDS011;4278;42.668;23.312;2022-10-16T10:07:03;4.47;;;3.50;;
8482;SDS011;4278;42.668;23.312;2022-10-16T10:09:31;4.47;;;3.27;;
8482;SDS011;4278;42.668;23.312;2022-10-16T10:11:59;4.30;;;3.03;;
8482;SDS011;4278;42.668;23.312;2022-10-16T10:14:32;4.87;;;2.90;;
8482;SDS011;4278;42.668;23.312;2022-10-16T10:17:11;5.43;;;3.10;;
8482;SDS011;4278;42.668;23.312;2022-10-16T10:19:39;5.93;;;3.60;;
8482;SDS011;4278;42.668;23.312;2022-10-16T10:22:13;4.03;;;2.58;;
8482;SDS011;4278;42.668;23.312;2022-10-16T10:24:39;2.63;;;2.42;;
8482;SDS011;4278;42.668;23.312;2022-10-16T10:27:06;5.30;;;3.05;;
8482;SDS011;4278;42.668;23.312;2022-10-16T10:29:42;4.68;;;3.30;;
8482;SDS011;4278;42.668;23.312;2022-10-16T10:32:17;6.65;;;3.20;;
8482;SDS011;4278;42.668;23.312;2022-10-16T10:34:51;4.88;;;2.97;;
8482;SDS011;4278;42.668;23.312;2022-10-16T10:37:23;4.85;;;3.08;;
8482;SDS011;4278;42.668;23.312;2022-10-16T10:39:55;5.10;;;2.78;;
8482;SDS011;4278;42.668;23.312;2022-10-16T10:42:25;3.28;;;2.40;;
8482;SDS011;4278;42.668;23.312;2022-10-16T10:45:02;4.47;;;2.72;;
8482;SDS011;4278;42.668;23.312;2022-10-16T10:47:33;4.38;;;2.80;;
8482;SDS011;4278;42.668;23.312;2022-10-16T10:50:05;5.40;;;2.90;;
8482;SDS011;4278;42.668;23.312;2022-10-16T10:52:41;5.53;;;2.85;;
8482;SDS011;4278;42.668;23.312;2022-10-16T10:55:10;4.78;;;2.60;;
8482;SDS011;4278;42.668;23.312;2022-10-16T10:57:40;4.38;;;2.90;;
8482;SDS011;4278;42.668;23.312;2022-10-16T11:00:13;5.75;;;3.17;;
8482;SDS011;4278;42.668;23.312;2022-10-16T11:02:45;3.72;;;2.92;;
8482;SDS011;4278;42.668;23.312;2022-10-16T11:07:59;2.75;;;2.20;;
8482;SDS011;4278;42.668;23.312;2022-10-16T11:10:27;3.08;;;2.47;;
8482;SDS011;4278;42.668;23.312;2022-10-16T11:12:55;5.43;;;3.10;;
8482;SDS011;4278;42.668;23.312;2022-10-16T11:15:25;3.72;;;2.60;;
8482;SDS011;4278;42.668;23.312;2022-10-16T11:17:54;3.47;;;2.65;;
8482;SDS011;4278;42.668;23.312;2022-10-16T11:20:24;6.43;;;3.90;;
8482;SDS011;4278;42.668;23.312;2022-10-16T11:22:53;4.07;;;3.00;;
8482;SDS011;4278;42.668;23.312;2022-10-16T11:25:21;3.28;;;2.83;;
8482;SDS011;4278;42.668;23.312;2022-10-16T11:27:49;6.30;;;4.32;;
8482;SDS011;4278;42.668;23.312;2022-10-16T11:30:18;4.45;;;3.05;;
8482;SDS011;4278;42.668;23.312;2022-10-16T11:32:53;4.93;;;4.28;;
8482;SDS011;4278;42.668;23.312;2022-10-16T11:35:23;4.88;;;2.30;;
8482;SDS011;4278;42.668;23.312;2022-10-16T11:37:51;3.25;;;2.20;;
8482;SDS011;4278;42.668;23.312;2022-10-16T11:40:21;4.88;;;3.88;;
8482;SDS011;4278;42.668;23.312;2022-10-16T11:42:51;2.33;;;2.05;;
8482;SDS011;4278;42.668;23.312;2022-10-16T11:45:23;5.82;;;4.45;;
8482;SDS011;4278;42.668;23.312;2022-10-16T11:47:54;4.32;;;2.90;;
8482;SDS011;4278;42.668;23.312;2022-10-16T11:50:25;3.55;;;2.60;;
8482;SDS011;4278;42.668;23.312;2022-10-16T11:52:53;3.10;;;2.60;;
8482;SDS011;4278;42.668;23.312;2022-10-16T11:55:22;5.25;;;3.35;;
8482;SDS011;4278;42.668;23.312;2022-10-16T11:57:51;3.85;;;2.88;;
8482;SDS011;4278;42.668;23.312;2022-10-16T12:00:20;7.80;;;5.10;;
8482;SDS011;4278;42.668;23.312;2022-10-16T12:02:50;3.83;;;2.33;;
8482;SDS011;4278;42.668;23.312;2022-10-16T12:05:24;3.67;;;2.53;;
8482;SDS011;4278;42.668;23.312;2022-10-16T12:07:55;4.93;;;2.38;;
8482;SDS011;4278;42.668;23.312;2022-10-16T12:10:25;5.45;;;2.75;;
8482;SDS011;4278;42.668;23.312;2022-10-16T12:12:52;19.05;;;13.63;;
8482;SDS011;4278;42.668;23.312;2022-10-16T12:15:20;5.28;;;3.25;;
8482;SDS011;4278;42.668;23.312;2022-10-16T12:17:47;10.63;;;6.93;;
8482;SDS011;4278;42.668;23.312;2022-10-16T12:20:19;4.25;;;2.97;;
8482;SDS011;4278;42.668;23.312;2022-10-16T12:22:49;6.25;;;3.30;;
8482;SDS011;4278;42.668;23.312;2022-10-16T12:25:20;4.30;;;2.97;;
8482;SDS011;4278;42.668;23.312;2022-10-16T12:27:53;4.70;;;3.45;;
8482;SDS011;4278;42.668;23.312;2022-10-16T12:30:20;4.32;;;3.42;;
8482;SDS011;4278;42.668;23.312;2022-10-16T12:32:52;2.78;;;2.55;;
8482;SDS011;4278;42.668;23.312;2022-10-16T12:35:20;4.07;;;2.45;;
8482;SDS011;4278;42.668;23.312;2022-10-16T12:37:48;5.35;;;3.22;;
8482;SDS011;4278;42.668;23.312;2022-10-16T12:40:22;4.10;;;2.60;;
8482;SDS011;4278;42.668;23.312;2022-10-16T12:42:50;4.72;;;3.15;;
8482;SDS011;4278;42.668;23.312;2022-10-16T12:45:27;3.83;;;2.90;;
8482;SDS011;4278;42.668;23.312;2022-10-16T12:47:54;17.25;;;10.82;;
8482;SDS011;4278;42.668;23.312;2022-10-16T12:50:25;9.32;;;6.40;;
8482;SDS011;4278;42.668;23.312;2022-10-16T12:52:54;7.55;;;5.47;;
8482;SDS011;4278;42.668;23.312;2022-10-16T12:55:21;4.95;;;3.75;;
8482;SDS011;4278;42.668;23.312;2022-10-16T12:57:53;5.63;;;2.92;;
8482;SDS011;4278;42.668;23.312;2022-10-16T13:00:24;3.85;;;2.83;;
8482;SDS011;4278;42.668;23.312;2022-10-16T13:03:04;4.00;;;3.03;;
8482;SDS011;4278;42.668;23.312;2022-10-16T13:05:39;3.25;;;2.65;;
8482;SDS011;4278;42.668;23.312;2022-10-16T13:08:20;4.60;;;3.30;;
8482;SDS011;4278;42.668;23.312;2022-10-16T13:10:53;9.82;;;3.88;;
8482;SDS011;4278;42.668;23.312;2022-10-16T13:13:36;5.03;;;2.88;;
8482;SDS011;4278;42.668;23.312;2022-10-16T13:16:08;3.85;;;3.00;;
8482;SDS011;4278;42.668;23.312;2022-10-16T13:18:40;5.20;;;3.25;;
8482;SDS011;4278;42.668;23.312;2022-10-16T13:21:13;3.95;;;2.70;;
8482;SDS011;4278;42.668;23.312;2022-10-16T13:23:45;3.83;;;2.92;;
8482;SDS011;4278;42.668;23.312;2022-10-16T13:26:17;3.92;;;3.22;;
8482;SDS011;4278;42.668;23.312;2022-10-16T13:28:48;3.75;;;2.78;;
8482;SDS011;4278;42.668;23.312;2022-10-16T13:31:15;4.47;;;3.25;;
8482;SDS011;4278;42.668;23.312;2022-10-16T13:33:45;3.72;;;2.72;;
8482;SDS011;4278;42.668;23.312;2022-10-16T13:36:22;5.03;;;2.35;;
8482;SDS011;4278;42.668;23.312;2022-10-16T13:39:00;3.47;;;2.55;;
8482;SDS011;4278;42.668;23.312;2022-10-16T13:41:26;5.55;;;3.05;;
8482;SDS011;4278;42.668;23.312;2022-10-16T13:43:53;3.08;;;2.25;;
8482;SDS011;4278;42.668;23.312;2022-10-16T13:46:21;8.32;;;2.40;;
8482;SDS011;4278;42.668;23.312;2022-10-16T13:48:56;3.67;;;2.75;;
8482;SDS011;4278;42.668;23.312;2022-10-16T13:51:22;3.22;;;2.38;;
8482;SDS011;4278;42.668;23.312;2022-10-16T13:53:49;6.18;;;2.25;;
8482;SDS011;4278;42.668;23.312;2022-10-16T13:56:18;5.65;;;2.85;;
8482;SDS011;4278;42.668;23.312;2022-10-16T13:58:45;6.90;;;2.90;;
8482;SDS011;4278;42.668;23.312;2022-10-16T14:01:15;4.35;;;2.38;;
8482;SDS011;4278;42.668;23.312;2022-10-16T14:03:42;7.28;;;3.28;;
8482;SDS011;4278;42.668;23.312;2022-10-16T14:06:11;4.03;;;2.67;;
8482;SDS011;4278;42.668;23.312;2022-10-16T14:08:40;5.97;;;2.70;;
8482;SDS011;4278;42.668;23.312;2022-10-16T14:11:08;3.75;;;2.65;;
8482;SDS011;4278;42.668;23.312;2022-10-16T14:13:38;6.57;;;2.83;;
8482;SDS011;4278;42.668;23.312;2022-10-16T14:16:06;7.65;;;4.60;;
8482;SDS011;4278;42.668;23.312;2022-10-16T14:18:33;6.95;;;3.33;;
8482;SDS011;4278;42.668;23.312;2022-10-16T14:21:04;4.30;;;2.60;;
8482;SDS011;4278;42.668;23.312;2022-10-16T14:23:31;4.65;;;2.58;;
8482;SDS011;4278;42.668;23.312;2022-10-16T14:26:12;5.05;;;3.00;;
8482;SDS011;4278;42.668;23.312;2022-10-16T14:28:41;4.95;;;2.58;;
8482;SDS011;4278;42.668;23.312;2022-10-16T14:31:21;7.30;;;3.65;;
8482;SDS011;4278;42.668;23.312;2022-10-16T14:33:50;4.60;;;3.10;;
8482;SDS011;4278;42.668;23.312;2022-10-16T14:36:16;3.80;;;2.78;;
8482;SDS011;4278;42.668;23.312;2022-10-16T14:38:48;3.28;;;2.60;;
8482;SDS011;4278;42.668;23.312;2022-10-16T14:41:15;6.30;;;3.35;;
8482;SDS011;4278;42.668;23.312;2022-10-16T14:43:49;10.45;;;3.50;;
8482;SDS011;4278;42.668;23.312;2022-10-16T14:46:16;12.10;;;2.80;;
8482;SDS011;4278;42.668;23.312;2022-10-16T14:48:43;9.43;;;2.80;;
8482;SDS011;4278;42.668;23.312;2022-10-16T14:51:13;5.63;;;3.17;;
8482;SDS011;4278;42.668;23.312;2022-10-16T14:53:40;5.20;;;2.60;;
8482;SDS011;4278;42.668;23.312;2022-10-16T14:56:06;6.63;;;2.88;;
8482;SDS011;4278;42.668;23.312;2022-10-16T14:58:34;7.67;;;2.60;;
8482;SDS011;4278;42.668;23.312;2022-10-16T15:01:02;4.37;;;2.50;;
8482;SDS011;4278;42.668;23.312;2022-10-16T15:03:31;5.00;;;2.60;;
8482;SDS011;4278;42.668;23.312;2022-10-16T15:05:58;4.17;;;2.60;;
8482;SDS011;4278;42.668;23.312;2022-10-16T15:08:24;3.57;;;2.57;;
8482;SDS011;4278;42.668;23.312;2022-10-16T15:10:51;4.60;;;2.97;;